createdAt,value
2017-12-24T00:00:51.448Z,27.70
2017-12-24T00:03:20.584Z,28.63
2017-12-24T00:05:48.933Z,28.60
2017-12-24T00:08:17.260Z,28.30
2017-12-24T00:10:46.388Z,26.37
2017-12-24T00:13:15.629Z,27.17
2017-12-24T00:15:44.001Z,26.73
2017-12-24T00:18:13.239Z,26.97
2017-12-24T00:20:42.405Z,27.47
2017-12-24T00:23:10.755Z,26.90
2017-12-24T00:25:40.968Z,27.23
2017-12-24T00:28:10.095Z,28.07
2017-12-24T00:30:38.452Z,26.87
2017-12-24T00:33:06.859Z,27.40
2017-12-24T00:35:35.236Z,27.87
2017-12-24T00:38:03.577Z,28.60
2017-12-24T00:40:32.782Z,29.50
2017-12-24T00:43:01.336Z,27.70
2017-12-24T00:45:29.678Z,27.77
2017-12-24T00:47:58.064Z,28.00
2017-12-24T00:50:26.397Z,27.03
2017-12-24T00:52:55.866Z,27.80
2017-12-24T00:55:25.063Z,26.03
2017-12-24T00:57:53.669Z,27.30
2017-12-24T01:00:21.983Z,29.07
2017-12-24T01:02:50.411Z,28.57
2017-12-24T01:05:19.320Z,27.63
2017-12-24T01:07:48.569Z,29.47
2017-12-24T01:10:16.970Z,28.33
2017-12-24T01:12:45.337Z,28.37
2017-12-24T01:15:13.694Z,29.20
2017-12-24T01:17:44.798Z,29.40
2017-12-24T01:20:13.150Z,29.17
2017-12-24T01:22:41.508Z,28.00
2017-12-24T01:25:09.925Z,28.90
2017-12-24T01:27:38.280Z,29.77
2017-12-24T01:30:06.638Z,29.13
2017-12-24T01:32:35.001Z,28.10
2017-12-24T01:35:03.354Z,31.77
2017-12-24T01:37:31.679Z,31.17
2017-12-24T01:40:00.080Z,29.43
2017-12-24T01:42:28.463Z,30.47
2017-12-24T01:44:56.838Z,30.20
2017-12-24T01:47:25.443Z,29.37
2017-12-24T01:49:53.798Z,28.87
2017-12-24T01:52:22.176Z,29.80
2017-12-24T01:54:50.607Z,28.07
2017-12-24T01:57:19.722Z,27.90
2017-12-24T01:59:48.080Z,27.97
2017-12-24T02:02:16.417Z,27.03
2017-12-24T02:04:44.744Z,27.43
2017-12-24T02:07:13.853Z,27.07
2017-12-24T02:09:42.860Z,27.50
2017-12-24T02:12:11.210Z,28.97
2017-12-24T02:14:40.351Z,28.70
2017-12-24T02:17:08.755Z,29.57
2017-12-24T02:19:37.096Z,29.70
2017-12-24T02:22:05.533Z,27.80
2017-12-24T02:24:34.656Z,28.67
2017-12-24T02:27:03.049Z,27.93
2017-12-24T02:29:31.382Z,28.40
2017-12-24T02:31:59.966Z,28.27
2017-12-24T02:34:28.289Z,28.90
2017-12-24T02:36:56.619Z,27.37
2017-12-24T02:39:24.993Z,28.10
2017-12-24T02:41:53.311Z,30.37
2017-12-24T02:44:21.656Z,29.30
2017-12-24T02:46:50.030Z,29.03
2017-12-24T02:49:18.376Z,31.83
2017-12-24T02:51:46.692Z,30.70
2017-12-24T02:54:15.525Z,31.07
2017-12-24T02:56:44.876Z,30.17
2017-12-24T02:59:13.302Z,30.57
2017-12-24T03:01:41.747Z,34.10
2017-12-24T03:04:10.162Z,31.80
2017-12-24T03:06:38.510Z,30.60
2017-12-24T03:09:06.874Z,31.03
2017-12-24T03:11:35.245Z,29.13
2017-12-24T03:14:10.637Z,30.90
2017-12-24T03:16:38.978Z,30.70
2017-12-24T03:19:07.363Z,31.43
2017-12-24T03:21:35.708Z,29.87
2017-12-24T03:24:04.061Z,28.07
2017-12-24T03:26:32.388Z,31.73
2017-12-24T03:29:00.756Z,29.77
2017-12-24T03:31:34.899Z,30.90
2017-12-24T03:34:03.498Z,33.73
2017-12-24T03:36:34.827Z,30.20
2017-12-24T03:39:03.294Z,29.60
2017-12-24T03:41:31.668Z,30.70
2017-12-24T03:43:59.993Z,28.63
2017-12-24T03:46:29.109Z,28.40
2017-12-24T03:48:57.468Z,28.83
2017-12-24T03:51:25.794Z,29.40
2017-12-24T03:53:54.123Z,28.00
2017-12-24T03:56:23.465Z,27.17
2017-12-24T03:58:51.783Z,27.03
2017-12-24T04:01:20.139Z,26.87
2017-12-24T04:03:48.516Z,25.23
2017-12-24T04:06:16.847Z,25.70
2017-12-24T04:08:45.940Z,25.20
2017-12-24T04:11:14.324Z,24.30
2017-12-24T04:13:42.661Z,24.00
2017-12-24T04:16:11.012Z,21.20
2017-12-24T04:18:39.699Z,23.57
2017-12-24T04:21:10.734Z,21.60
2017-12-24T04:23:39.085Z,21.90
2017-12-24T04:26:07.489Z,20.00
2017-12-24T04:28:35.798Z,23.07
2017-12-24T04:31:04.143Z,20.53
2017-12-24T04:33:32.527Z,20.43
2017-12-24T04:36:00.860Z,17.60
2017-12-24T04:38:29.461Z,17.40
2017-12-24T04:40:58.919Z,18.97
2017-12-24T04:43:27.322Z,18.43
2017-12-24T04:45:55.782Z,19.00
2017-12-24T04:48:24.224Z,16.67
2017-12-24T04:50:52.573Z,17.97
2017-12-24T04:53:21.143Z,16.63
2017-12-24T04:55:49.623Z,16.00
2017-12-24T04:58:17.967Z,15.20
2017-12-24T05:00:46.487Z,15.20
2017-12-24T05:03:15.376Z,16.00
2017-12-24T05:05:43.860Z,16.23
2017-12-24T05:08:12.341Z,16.70
2017-12-24T05:10:40.924Z,16.77
2017-12-24T05:13:09.509Z,14.40
2017-12-24T05:15:41.685Z,14.40
2017-12-24T05:18:10.130Z,14.00
2017-12-24T05:20:38.564Z,14.13
2017-12-24T05:23:08.046Z,13.60
2017-12-24T05:25:36.399Z,12.97
2017-12-24T05:28:04.904Z,12.10
2017-12-24T05:30:33.391Z,13.60
2017-12-24T05:33:01.870Z,12.60
2017-12-24T05:35:30.253Z,12.73
2017-12-24T05:37:58.742Z,12.70
2017-12-24T05:40:27.108Z,12.77
2017-12-24T05:42:55.578Z,11.60
2017-12-24T05:45:24.698Z,11.43
2017-12-24T05:47:53.178Z,11.00
2017-12-24T05:50:21.660Z,11.47
2017-12-24T05:52:50.243Z,11.87
2017-12-24T05:55:18.835Z,12.50
2017-12-24T05:57:47.207Z,11.90
2017-12-24T06:00:15.794Z,12.20
2017-12-24T06:02:44.275Z,11.13
2017-12-24T06:05:12.755Z,11.67
2017-12-24T06:07:41.845Z,11.30
2017-12-24T06:10:10.339Z,11.47
2017-12-24T06:12:39.526Z,10.03
2017-12-24T06:15:08.005Z,11.00
2017-12-24T06:17:36.386Z,11.63
2017-12-24T06:20:04.809Z,11.80
2017-12-24T06:22:33.349Z,11.50
2017-12-24T06:25:01.733Z,11.87
2017-12-24T06:27:30.211Z,12.37
2017-12-24T06:29:59.001Z,12.80
2017-12-24T06:32:27.394Z,11.93
2017-12-24T06:34:56.542Z,12.83
2017-12-24T06:37:24.903Z,13.00
2017-12-24T06:39:53.342Z,11.47
2017-12-24T06:42:21.826Z,12.27
2017-12-24T06:44:50.301Z,13.23
2017-12-24T06:47:18.687Z,13.33
2017-12-24T06:49:47.090Z,12.93
2017-12-24T06:52:15.676Z,13.87
2017-12-24T06:54:44.125Z,12.87
2017-12-24T06:57:12.520Z,12.60
2017-12-24T06:59:40.988Z,14.90
2017-12-24T07:02:09.374Z,13.73
2017-12-24T07:04:37.849Z,13.03
2017-12-24T07:07:06.338Z,13.50
2017-12-24T07:09:34.742Z,14.10
2017-12-24T07:12:03.194Z,13.50
2017-12-24T07:14:32.092Z,13.60
2017-12-24T07:17:01.382Z,12.40
2017-12-24T07:19:29.771Z,13.23
2017-12-24T07:21:58.311Z,11.73
2017-12-24T07:24:26.671Z,12.57
2017-12-24T07:26:55.036Z,12.80
2017-12-24T07:29:24.223Z,12.93
2017-12-24T07:31:52.654Z,13.90
2017-12-24T07:34:21.112Z,12.13
2017-12-24T07:36:49.518Z,12.93
2017-12-24T07:39:17.832Z,13.27
2017-12-24T07:41:46.348Z,13.50
2017-12-24T07:44:14.867Z,13.43
2017-12-24T07:46:43.381Z,13.83
2017-12-24T07:49:11.865Z,15.07
2017-12-24T07:51:40.246Z,13.43
2017-12-24T07:54:09.459Z,14.40
2017-12-24T07:56:38.638Z,14.93
2017-12-24T07:59:08.239Z,14.87
2017-12-24T08:01:36.735Z,17.73
2017-12-24T08:04:05.208Z,18.47
2017-12-24T08:06:33.683Z,20.17
2017-12-24T08:09:02.166Z,19.00
2017-12-24T08:11:30.647Z,21.13
2017-12-24T08:13:59.128Z,21.20
2017-12-24T08:16:27.611Z,19.70
2017-12-24T08:18:56.100Z,17.30
2017-12-24T08:21:24.782Z,18.50
2017-12-24T08:23:53.236Z,20.87
2017-12-24T08:26:21.541Z,20.40
2017-12-24T08:28:49.879Z,22.53
2017-12-24T08:31:18.231Z,22.00
2017-12-24T08:33:46.559Z,22.80
2017-12-24T08:36:14.941Z,23.43
2017-12-24T08:38:44.050Z,23.73
2017-12-24T08:41:12.462Z,23.33
2017-12-24T08:43:42.028Z,22.23
2017-12-24T08:46:11.133Z,19.57
2017-12-24T08:48:39.476Z,19.17
2017-12-24T08:51:08.232Z,19.53
2017-12-24T08:53:36.586Z,19.60
2017-12-24T08:56:04.966Z,19.97
2017-12-24T08:58:33.324Z,21.20
2017-12-24T09:01:01.649Z,21.70
2017-12-24T09:03:29.995Z,20.23
2017-12-24T09:05:58.665Z,22.27
2017-12-24T09:08:27.035Z,21.47
2017-12-24T09:10:55.365Z,20.23
2017-12-24T09:13:24.734Z,19.80
2017-12-24T09:15:53.079Z,18.60
2017-12-24T09:18:21.509Z,19.33
2017-12-24T09:20:49.853Z,19.20
2017-12-24T09:23:18.202Z,17.03
2017-12-24T09:25:46.570Z,16.90
2017-12-24T09:28:15.065Z,16.70
2017-12-24T09:30:43.413Z,15.80
2017-12-24T09:33:12.607Z,15.53
2017-12-24T09:35:40.961Z,16.80
2017-12-24T09:38:09.308Z,15.80
2017-12-24T09:40:37.635Z,17.97
2017-12-24T09:43:06.323Z,18.33
2017-12-24T09:45:34.699Z,21.00
2017-12-24T09:48:03.055Z,22.07
2017-12-24T09:50:31.827Z,22.87
2017-12-24T09:53:00.188Z,21.90
2017-12-24T09:55:28.553Z,22.67
2017-12-24T09:57:56.934Z,23.17
2017-12-24T10:00:26.030Z,24.47
2017-12-24T10:02:55.161Z,23.53
2017-12-24T10:05:23.503Z,23.40
2017-12-24T10:07:51.824Z,23.87
2017-12-24T10:10:20.200Z,27.20
2017-12-24T10:12:48.890Z,23.77
2017-12-24T10:15:18.121Z,22.47
2017-12-24T10:17:46.503Z,25.00
2017-12-24T10:20:14.977Z,24.20
2017-12-24T10:22:43.431Z,24.30
2017-12-24T10:25:11.838Z,25.03
2017-12-24T10:27:40.262Z,24.90
2017-12-24T10:30:08.699Z,22.70
2017-12-24T10:32:37.099Z,22.60
2017-12-24T10:35:06.570Z,21.33
2017-12-24T10:37:35.047Z,20.00
2017-12-24T10:40:03.451Z,19.17
2017-12-24T10:42:31.789Z,19.70
2017-12-24T10:45:00.190Z,20.50
2017-12-24T10:47:29.440Z,18.17
2017-12-24T10:49:58.426Z,18.97
2017-12-24T10:52:26.882Z,18.77
2017-12-24T10:54:55.537Z,18.97
2017-12-24T10:57:24.431Z,17.30
2017-12-24T10:59:52.842Z,17.87
2017-12-24T11:02:21.296Z,18.40
2017-12-24T11:04:49.771Z,18.20
2017-12-24T11:07:18.142Z,17.40
2017-12-24T11:09:46.456Z,18.77
2017-12-24T11:12:14.885Z,18.67
2017-12-24T11:14:43.245Z,18.53
2017-12-24T11:17:12.448Z,17.43
2017-12-24T11:19:41.074Z,19.50
2017-12-24T11:22:09.435Z,19.23
2017-12-24T11:24:37.792Z,19.23
2017-12-24T11:27:06.929Z,19.97
2017-12-24T11:29:35.291Z,18.43
2017-12-24T11:32:03.642Z,19.10
2017-12-24T11:34:32.767Z,17.90
2017-12-24T11:37:01.158Z,17.63
2017-12-24T11:39:29.503Z,17.37
2017-12-24T11:41:58.027Z,17.10
2017-12-24T11:44:26.386Z,18.33
2017-12-24T11:46:54.729Z,17.27
2017-12-24T11:49:23.104Z,18.40
2017-12-24T11:51:52.281Z,16.93
2017-12-24T11:54:20.612Z,16.23
2017-12-24T11:56:49.007Z,15.77
2017-12-24T11:59:17.314Z,16.80
2017-12-24T12:01:45.691Z,16.50
2017-12-24T12:04:14.552Z,17.10
2017-12-24T12:06:42.940Z,15.90
2017-12-24T12:09:11.273Z,16.92
2017-12-24T12:11:39.734Z,17.00
2017-12-24T12:14:08.129Z,15.30
2017-12-24T12:16:37.278Z,15.17
2017-12-24T12:19:05.641Z,15.67
2017-12-24T12:21:33.986Z,15.67
2017-12-24T12:24:03.103Z,12.40
2017-12-24T12:26:31.902Z,12.93
2017-12-24T12:29:00.292Z,15.33
2017-12-24T12:31:29.297Z,13.47
2017-12-24T12:33:57.653Z,13.43
2017-12-24T12:36:26.023Z,13.47
2017-12-24T12:38:54.369Z,13.07
2017-12-24T12:41:22.708Z,13.93
2017-12-24T12:43:51.071Z,13.73
2017-12-24T12:46:19.407Z,12.93
2017-12-24T12:48:48.003Z,12.80
2017-12-24T12:51:16.349Z,13.00
2017-12-24T12:53:44.664Z,12.80
2017-12-24T12:56:14.997Z,12.43
2017-12-24T12:58:43.325Z,11.80
2017-12-24T13:01:11.677Z,11.73
2017-12-24T13:03:40.049Z,11.13
2017-12-24T13:06:08.397Z,10.03
2017-12-24T13:08:36.815Z,11.63
2017-12-24T13:11:05.714Z,10.33
2017-12-24T13:13:34.079Z,9.53
2017-12-24T13:16:02.422Z,9.40
2017-12-24T13:18:30.858Z,10.00
2017-12-24T13:20:59.231Z,8.37
2017-12-24T13:23:27.559Z,9.70
2017-12-24T13:25:55.972Z,8.90
2017-12-24T13:28:24.349Z,9.80
2017-12-24T13:30:52.708Z,9.40
2017-12-24T13:33:22.168Z,9.43
2017-12-24T13:35:50.529Z,9.13
2017-12-24T13:38:18.900Z,8.83
2017-12-24T13:40:47.254Z,8.53
2017-12-24T13:43:16.357Z,8.40
2017-12-24T13:45:46.136Z,8.70
2017-12-24T13:48:14.516Z,8.77
2017-12-24T13:50:42.851Z,8.47
2017-12-24T13:53:11.194Z,8.73
2017-12-24T13:55:39.759Z,9.20
2017-12-24T13:58:08.126Z,8.83
2017-12-24T14:00:36.461Z,8.23
2017-12-24T14:03:04.808Z,7.97
2017-12-24T14:05:33.916Z,8.07
2017-12-24T14:08:03.030Z,7.60
2017-12-24T14:10:31.405Z,8.30
2017-12-24T14:13:00.754Z,8.53
2017-12-24T14:15:29.244Z,7.70
2017-12-24T14:17:58.059Z,8.33
2017-12-24T14:20:27.153Z,8.10
2017-12-24T14:22:56.280Z,7.70
2017-12-24T14:25:24.627Z,7.63
2017-12-24T14:27:53.729Z,8.50
2017-12-24T14:30:22.821Z,7.47
2017-12-24T14:32:51.946Z,8.30
2017-12-24T14:35:20.307Z,7.77
2017-12-24T14:37:48.631Z,8.90
2017-12-24T14:40:17.030Z,7.50
2017-12-24T14:42:45.353Z,6.83
2017-12-24T14:45:13.673Z,7.50
2017-12-24T14:47:42.054Z,7.60
2017-12-24T14:50:10.421Z,7.90
2017-12-24T14:52:38.734Z,8.47
2017-12-24T14:55:07.084Z,7.90
2017-12-24T14:57:35.456Z,7.50
2017-12-24T15:00:03.757Z,6.93
2017-12-24T15:02:32.443Z,6.83
2017-12-24T15:05:00.800Z,7.13
2017-12-24T15:07:29.165Z,6.80
2017-12-24T15:09:57.535Z,7.33
2017-12-24T15:12:25.860Z,7.90
2017-12-24T15:14:54.184Z,8.20
2017-12-24T15:17:22.528Z,7.40
2017-12-24T15:19:50.885Z,8.10
2017-12-24T15:22:19.238Z,7.97
2017-12-24T15:24:47.825Z,7.83
2017-12-24T15:27:16.176Z,7.87
2017-12-24T15:29:44.523Z,7.77
2017-12-24T15:32:12.899Z,8.80
2017-12-24T15:34:41.221Z,9.10
2017-12-24T15:37:09.600Z,8.60
2017-12-24T15:39:37.992Z,9.00
2017-12-24T15:42:06.326Z,8.73
2017-12-24T15:44:34.658Z,8.70
2017-12-24T15:47:03.356Z,9.50
2017-12-24T15:49:31.717Z,9.13
2017-12-24T15:52:00.098Z,9.23
2017-12-24T15:54:28.474Z,8.20
2017-12-24T15:56:56.810Z,8.30
2017-12-24T15:59:25.895Z,9.07
2017-12-24T16:01:54.269Z,9.90
2017-12-24T16:04:22.611Z,9.80
2017-12-24T16:06:50.922Z,9.83
2017-12-24T16:09:19.618Z,9.33
2017-12-24T16:11:47.966Z,10.57
2017-12-24T16:14:16.307Z,9.90
2017-12-24T16:16:44.650Z,9.60
2017-12-24T16:19:13.063Z,10.80
2017-12-24T16:21:42.152Z,11.97
2017-12-24T16:24:10.602Z,10.50
2017-12-24T16:26:39.711Z,11.13
2017-12-24T16:29:08.083Z,10.00
2017-12-24T16:31:36.491Z,11.80
2017-12-24T16:34:04.816Z,10.93
2017-12-24T16:36:33.178Z,10.70
2017-12-24T16:39:01.543Z,11.60
2017-12-24T16:41:29.910Z,12.53
2017-12-24T16:43:59.030Z,11.90
2017-12-24T16:46:27.391Z,12.10
2017-12-24T16:48:55.757Z,11.10
2017-12-24T16:51:24.869Z,11.80
2017-12-24T16:53:53.582Z,12.13
2017-12-24T16:56:21.916Z,11.07
2017-12-24T16:58:50.310Z,13.20
2017-12-24T17:01:18.737Z,12.70
2017-12-24T17:03:47.057Z,11.00
2017-12-24T17:06:16.155Z,12.47
2017-12-24T17:08:45.344Z,11.50
2017-12-24T17:11:13.732Z,12.63
2017-12-24T17:13:42.844Z,12.63
2017-12-24T17:16:11.426Z,12.10
2017-12-24T17:18:39.789Z,12.30
2017-12-24T17:21:08.893Z,13.53
2017-12-24T17:23:37.244Z,13.23
2017-12-24T17:26:05.563Z,12.70
2017-12-24T17:28:33.917Z,12.30
2017-12-24T17:31:03.045Z,12.03
2017-12-24T17:33:31.370Z,12.50
2017-12-24T17:35:59.695Z,12.50
2017-12-24T17:38:28.917Z,12.50
2017-12-24T17:40:57.286Z,12.83
2017-12-24T17:43:25.656Z,13.50
2017-12-24T17:45:54.058Z,12.27
2017-12-24T17:48:22.410Z,14.20
2017-12-24T17:50:51.193Z,14.37
2017-12-24T17:53:19.633Z,14.67
2017-12-24T17:55:47.976Z,14.60
2017-12-24T17:58:16.301Z,14.77
2017-12-24T18:00:44.956Z,16.33
2017-12-24T18:03:13.280Z,15.90
2017-12-24T18:05:42.377Z,16.37
2017-12-24T18:08:11.523Z,16.50
2017-12-24T18:10:39.837Z,16.70
2017-12-24T18:13:08.172Z,16.90
2017-12-24T18:15:36.507Z,16.70
2017-12-24T18:18:05.604Z,17.43
2017-12-24T18:20:34.734Z,17.27
2017-12-24T18:23:03.487Z,18.20
2017-12-24T18:25:31.834Z,18.87
2017-12-24T18:28:00.352Z,17.17
2017-12-24T18:30:29.541Z,17.00
2017-12-24T18:32:57.879Z,17.27
2017-12-24T18:35:26.191Z,17.70
2017-12-24T18:37:54.574Z,18.70
2017-12-24T18:40:22.938Z,18.63
2017-12-24T18:42:51.269Z,17.57
2017-12-24T18:45:19.735Z,17.70
2017-12-24T18:47:48.076Z,17.43
2017-12-24T18:50:16.427Z,14.93
2017-12-24T18:52:44.831Z,16.40
2017-12-24T18:55:13.153Z,16.30
2017-12-24T18:57:41.474Z,15.93
2017-12-24T19:00:10.598Z,16.90
2017-12-24T19:02:38.975Z,15.17
2017-12-24T19:05:07.335Z,15.90
2017-12-24T19:07:36.182Z,15.30
2017-12-24T19:10:04.527Z,14.03
2017-12-24T19:12:33.646Z,14.37
2017-12-24T19:15:02.796Z,15.90
2017-12-24T19:17:31.131Z,14.30
2017-12-24T19:19:59.522Z,15.03
2017-12-24T19:22:27.886Z,14.37
2017-12-24T19:24:57.073Z,13.63
2017-12-24T19:27:26.167Z,14.07
2017-12-24T19:29:55.818Z,14.23
2017-12-24T19:35:20.967Z,13.77
2017-12-24T19:37:49.330Z,13.90
2017-12-24T19:40:17.703Z,13.00
2017-12-24T19:42:46.074Z,14.70
2017-12-24T19:45:14.409Z,13.20
2017-12-24T19:47:42.779Z,13.40
2017-12-24T19:50:11.320Z,14.90
2017-12-24T19:52:39.679Z,15.23
2017-12-24T19:55:08.031Z,15.33
2017-12-24T19:57:40.189Z,15.70
2017-12-24T20:00:08.509Z,16.10
2017-12-24T20:02:36.846Z,16.47
2017-12-24T20:05:05.227Z,14.40
2017-12-24T20:07:33.557Z,17.70
2017-12-24T20:10:01.887Z,14.60
2017-12-24T20:12:30.632Z,16.20
2017-12-24T20:14:58.992Z,16.70
2017-12-24T20:17:32.190Z,15.80
2017-12-24T20:20:01.400Z,17.07
2017-12-24T20:22:29.851Z,15.53
2017-12-24T20:24:58.967Z,16.33
2017-12-24T20:27:27.741Z,16.13
2017-12-24T20:29:56.102Z,17.30
2017-12-24T20:32:25.189Z,15.70
2017-12-24T20:34:54.006Z,15.57
2017-12-24T20:37:22.372Z,16.23
2017-12-24T20:39:51.488Z,15.83
2017-12-24T20:42:19.852Z,16.60
2017-12-24T20:44:48.184Z,17.57
2017-12-24T20:47:16.575Z,17.10
2017-12-24T20:49:44.948Z,16.10
2017-12-24T20:52:14.072Z,17.73
2017-12-24T20:54:42.394Z,17.20
2017-12-24T20:57:11.137Z,16.17
2017-12-24T20:59:39.471Z,18.10
2017-12-24T21:02:07.811Z,18.90
2017-12-24T21:04:36.981Z,17.57
2017-12-24T21:07:05.357Z,18.03
2017-12-24T21:09:33.702Z,17.30
2017-12-24T21:12:02.044Z,19.57
2017-12-24T21:14:31.195Z,18.40
2017-12-24T21:19:56.342Z,18.73
2017-12-24T21:22:26.370Z,19.27
2017-12-24T21:24:55.517Z,18.77
2017-12-24T21:27:24.268Z,20.17
2017-12-24T21:29:52.639Z,19.60
2017-12-24T21:32:21.750Z,17.67
2017-12-24T21:34:51.160Z,18.63
2017-12-24T21:37:19.495Z,17.90
2017-12-24T21:39:47.834Z,19.80
2017-12-24T21:42:16.602Z,20.00
2017-12-24T21:44:44.973Z,19.77
2017-12-24T21:47:14.174Z,21.00
2017-12-24T21:49:42.877Z,21.30
2017-12-24T21:52:11.223Z,21.17
2017-12-24T21:54:40.345Z,20.20
2017-12-24T21:57:09.143Z,20.67
2017-12-24T21:59:37.499Z,21.13
2017-12-24T22:02:05.852Z,21.30
2017-12-24T22:04:34.821Z,20.43
2017-12-24T22:07:03.179Z,21.07
2017-12-24T22:09:31.524Z,22.10
2017-12-24T22:12:00.327Z,22.07
2017-12-24T22:14:28.681Z,20.83
2017-12-24T22:16:57.051Z,22.67
2017-12-24T22:19:25.874Z,22.63
2017-12-24T22:21:55.037Z,23.80
2017-12-24T22:24:23.391Z,21.80
2017-12-24T22:26:52.555Z,23.20
2017-12-24T22:29:20.886Z,24.93
2017-12-24T22:31:49.299Z,23.60
2017-12-24T22:34:18.844Z,24.40
2017-12-24T22:36:47.197Z,23.33
2017-12-24T22:39:15.603Z,21.80
2017-12-24T22:41:44.248Z,22.77
2017-12-24T22:44:12.583Z,21.40
2017-12-24T22:46:40.935Z,21.77
2017-12-24T22:49:09.928Z,21.60
2017-12-24T22:51:38.302Z,21.07
2017-12-24T22:54:06.666Z,18.47
2017-12-24T22:56:35.282Z,16.60
2017-12-24T22:59:03.666Z,17.30
2017-12-24T23:01:40.155Z,15.83
2017-12-24T23:04:08.497Z,16.10
2017-12-24T23:06:36.869Z,16.87
2017-12-24T23:09:05.764Z,15.57
2017-12-24T23:11:34.115Z,15.33
2017-12-24T23:14:03.333Z,13.43
2017-12-24T23:16:32.002Z,14.70
2017-12-24T23:19:00.348Z,14.83
2017-12-24T23:21:28.706Z,14.80
2017-12-24T23:23:57.347Z,13.67
2017-12-24T23:26:26.485Z,14.20
2017-12-24T23:28:54.830Z,13.57
2017-12-24T23:31:24.553Z,12.60
2017-12-24T23:33:52.965Z,13.60
2017-12-24T23:36:21.315Z,10.90
2017-12-24T23:38:49.961Z,12.57
2017-12-24T23:41:18.341Z,12.67
2017-12-24T23:43:46.709Z,11.30
2017-12-24T23:46:15.305Z,11.00
2017-12-24T23:48:43.672Z,9.10
2017-12-24T23:51:12.885Z,8.67
2017-12-24T23:53:41.906Z,8.00
2017-12-24T23:56:11.084Z,7.33
2017-12-24T23:58:39.443Z,7.90
